createdAt,value
2022-08-26T00:02:46.156Z,20.13377926421405
2022-08-26T00:09:08.000Z,21.180602006688964
2022-08-26T00:15:29.381Z,20.441471571906355
2022-08-26T00:21:51.230Z,21.103678929765888
2022-08-26T00:28:13.400Z,21.528428093645484
2022-08-26T00:35:16.794Z,21.933110367892976
2022-08-26T00:41:38.683Z,21.82608695652174
2022-08-26T00:48:23.633Z,22.0
2022-08-26T00:54:45.049Z,22.304347826086957
2022-08-26T01:01:06.214Z,22.54180602006689
2022-08-26T01:07:27.638Z,22.705685618729095
2022-08-26T01:13:52.369Z,22.648829431438127
2022-08-26T01:25:31.749Z,22.183946488294314
2022-08-26T01:34:35.006Z,22.862876254180602
2022-08-26T01:47:13.538Z,23.618729096989966
2022-08-26T01:53:35.871Z,23.120401337792643
2022-08-26T02:02:15.854Z,23.762541806020067
2022-08-26T02:12:00.174Z,24.54515050167224
2022-08-26T02:31:47.249Z,23.31103678929766
2022-08-26T02:43:39.618Z,24.150501672240804
2022-08-26T02:50:01.486Z,25.11371237458194
2022-08-26T02:56:22.862Z,24.03344481605351
2022-08-26T03:07:10.930Z,25.93645484949833
2022-08-26T03:19:06.556Z,24.51505016722408
2022-08-26T03:25:37.474Z,25.816053511705686
2022-08-26T03:34:29.055Z,24.926421404682273
2022-08-26T03:43:10.672Z,24.836120401337794
2022-08-26T03:53:37.323Z,26.929765886287626
2022-08-26T04:01:46.978Z,27.779264214046822
2022-08-26T04:08:09.262Z,26.859531772575252
2022-08-26T04:14:31.327Z,27.190635451505017
2022-08-26T04:28:55.125Z,26.25083612040134
2022-08-26T04:35:16.721Z,26.45484949832776
2022-08-26T04:47:16.950Z,28.130434782608695
2022-08-26T04:53:51.922Z,29.163879598662206
2022-08-26T05:00:13.112Z,28.327759197324415
2022-08-26T05:06:37.053Z,29.468227424749163
2022-08-26T05:12:58.237Z,29.923076923076923
2022-08-26T05:24:17.991Z,30.578595317725753
2022-08-26T05:54:57.587Z,31.40802675585284
2022-08-26T06:01:18.794Z,31.103678929765888
2022-08-26T06:07:41.203Z,31.40468227424749
2022-08-26T06:14:03.918Z,31.752508361204015
2022-08-26T06:20:27.913Z,32.30769230769231
2022-08-26T06:30:05.735Z,31.892976588628763
2022-08-26T06:36:27.587Z,30.896321070234112
2022-08-26T06:42:49.617Z,31.779264214046822
2022-08-26T06:49:11.678Z,31.8561872909699
2022-08-26T06:55:32.606Z,30.88294314381271
2022-08-26T07:02:22.296Z,30.070234113712374
2022-08-26T07:08:43.642Z,31.06354515050167
2022-08-26T07:15:04.906Z,32.11371237458194
2022-08-26T07:27:20.316Z,29.65886287625418
2022-08-26T07:33:46.096Z,28.254180602006688
2022-08-26T07:43:44.620Z,28.93979933110368
2022-08-26T07:50:12.340Z,28.705685618729095
2022-08-26T08:04:58.510Z,29.438127090301002
2022-08-26T08:11:22.329Z,27.638795986622075
2022-08-26T08:21:37.182Z,25.96989966555184
2022-08-26T08:28:00.287Z,26.59197324414716
2022-08-26T08:34:24.990Z,24.214046822742475
2022-08-26T08:40:46.698Z,24.762541806020067
2022-08-26T08:47:08.581Z,26.207357859531772
2022-08-26T08:55:35.281Z,23.62541806020067
2022-08-26T09:01:57.482Z,23.130434782608695
2022-08-26T09:08:20.476Z,23.03010033444816
2022-08-26T09:14:42.145Z,22.110367892976587
2022-08-26T09:21:04.422Z,21.906354515050168
2022-08-26T09:27:25.850Z,23.127090301003346
2022-08-26T09:33:47.746Z,21.94314381270903
2022-08-26T09:43:57.026Z,21.39464882943144
2022-08-26T09:50:18.818Z,19.0
2022-08-26T09:56:39.945Z,19.65886287625418
2022-08-26T10:05:12.474Z,20.662207357859533
2022-08-26T10:11:33.712Z,21.745819397993312
2022-08-26T10:17:54.999Z,21.441471571906355
2022-08-26T10:34:00.042Z,21.5752508361204
2022-08-26T10:40:25.024Z,19.849498327759196
2022-08-26T10:46:57.640Z,20.08361204013378
2022-08-26T10:53:25.377Z,20.160535117056856
2022-08-26T10:59:51.745Z,20.438127090301002
2022-08-26T11:06:17.676Z,21.070234113712374
2022-08-26T11:12:49.386Z,22.789297658862875
2022-08-26T11:20:30.305Z,22.103678929765888
2022-08-26T11:29:26.507Z,22.474916387959865
2022-08-26T11:36:12.323Z,21.20066889632107
2022-08-26T11:42:48.448Z,23.525083612040135
2022-08-26T11:52:41.095Z,22.50836120401338
2022-08-26T11:59:05.767Z,21.869565217391305
2022-08-26T12:08:38.062Z,22.070234113712374
2022-08-26T12:15:02.234Z,21.712374581939798
2022-08-26T12:23:39.193Z,23.354515050167223
2022-08-26T12:35:56.668Z,23.08026755852843
2022-08-26T12:42:20.326Z,26.23076923076923
2022-08-26T12:53:10.954Z,30.96655518394649
2022-08-26T12:59:34.481Z,32.274247491638796
2022-08-26T13:05:57.335Z,33.79598662207358
2022-08-26T13:19:10.335Z,31.347826086956523
2022-08-26T13:25:33.094Z,28.622073578595316
2022-08-26T13:31:57.131Z,27.103678929765888
2022-08-26T13:38:33.444Z,26.45819397993311
2022-08-26T13:45:34.301Z,33.67224080267559
2022-08-26T13:53:23.814Z,35.57859531772575
2022-08-26T14:00:54.565Z,35.80936454849498
2022-08-26T14:07:21.861Z,31.816053511705686
2022-08-26T14:13:45.625Z,17.08026755852843
2022-08-26T14:20:10.574Z,18.672240802675585
2022-08-26T14:26:34.918Z,15.451505016722408
2022-08-26T14:32:59.944Z,14.301003344481606
2022-08-26T14:39:25.619Z,15.076923076923077
2022-08-26T14:45:53.081Z,16.859531772575252
2022-08-26T14:52:25.328Z,23.795986622073578
2022-08-26T14:58:49.615Z,35.16053511705686
2022-08-26T15:08:38.299Z,40.19063545150502
2022-08-26T15:26:52.719Z,39.20401337792642
2022-08-26T15:33:15.605Z,35.953177257525084
2022-08-26T15:39:39.708Z,33.702341137123746
2022-08-26T15:46:02.268Z,32.42809364548495
2022-08-26T15:52:25.302Z,33.05016722408027
2022-08-26T15:58:48.649Z,32.759197324414714
2022-08-26T16:05:12.569Z,33.02341137123746
2022-08-26T16:11:37.485Z,33.66555183946488
2022-08-26T16:18:01.817Z,35.37792642140468
2022-08-26T16:30:03.296Z,33.58862876254181
2022-08-26T16:36:26.533Z,32.26086956521739
2022-08-26T16:42:50.815Z,31.62876254180602
2022-08-26T16:49:15.506Z,27.1438127090301
2022-08-26T16:55:36.694Z,25.1438127090301
2022-08-26T17:03:50.789Z,18.29096989966555
2022-08-26T17:10:12.193Z,14.033444816053512
2022-08-26T17:16:33.518Z,13.846153846153847
2022-08-26T17:27:16.200Z,12.80267558528428
2022-08-26T17:33:40.780Z,9.806020066889632
2022-08-26T17:42:14.957Z,9.57190635451505
2022-08-26T17:48:37.090Z,7.842809364548495
2022-08-26T17:58:23.581Z,6.528428093645485
2022-08-26T18:08:35.581Z,7.05685618729097
2022-08-26T18:14:57.756Z,6.585284280936455
2022-08-26T18:27:02.776Z,6.337792642140468
2022-08-26T18:40:43.297Z,6.454849498327759
2022-08-26T18:48:15.820Z,5.280936454849498
2022-08-26T18:54:39.723Z,4.344481605351171
2022-08-26T19:01:03.824Z,4.765886287625418
2022-08-26T19:07:26.981Z,4.963210702341137
2022-08-26T19:15:31.892Z,5.40133779264214
2022-08-26T19:21:56.570Z,4.869565217391305
2022-08-26T19:28:30.203Z,5.050167224080267
2022-08-26T19:34:53.381Z,5.013377926421405
2022-08-26T19:41:15.177Z,3.9665551839464883
2022-08-26T19:47:38.238Z,4.62876254180602
2022-08-26T19:54:00.651Z,3.882943143812709
2022-08-26T20:00:23.169Z,4.20066889632107
2022-08-26T20:06:51.096Z,4.511705685618729
2022-08-26T20:13:22.620Z,4.411371237458194
2022-08-26T20:19:47.143Z,3.3578595317725752
2022-08-26T20:26:12.593Z,3.9966555183946486
2022-08-26T20:32:35.675Z,4.043478260869565
2022-08-26T20:42:37.322Z,3.765886287625418
2022-08-26T20:51:01.936Z,3.919732441471572
2022-08-26T20:57:24.343Z,4.2274247491638794
2022-08-26T21:03:45.480Z,3.6354515050167224
2022-08-26T21:10:06.850Z,4.033444816053512
2022-08-26T21:16:28.220Z,4.280936454849498
2022-08-26T21:22:50.172Z,4.093645484949833
2022-08-26T21:29:10.761Z,4.923076923076923
2022-08-26T21:35:31.747Z,4.321070234113712
2022-08-26T21:41:52.264Z,4.438127090301004
2022-08-26T21:51:47.292Z,5.193979933110368
2022-08-26T21:58:07.735Z,5.585284280936455
2022-08-26T22:04:28.400Z,5.006688963210703
2022-08-26T22:10:49.712Z,5.357859531772576
2022-08-26T22:17:10.874Z,5.304347826086956
2022-08-26T22:23:31.838Z,4.591973244147157
2022-08-26T22:35:59.587Z,4.464882943143813
2022-08-26T22:42:21.214Z,3.8127090301003346
2022-08-26T22:48:42.453Z,3.9331103678929766
2022-08-26T22:55:03.456Z,3.1638795986622075
2022-08-26T23:01:24.234Z,3.210702341137124
2022-08-26T23:07:45.674Z,3.254180602006689
2022-08-26T23:14:06.934Z,3.2675585284280935
2022-08-26T23:30:04.683Z,2.4414715719063547
2022-08-26T23:36:26.801Z,1.8896321070234114
2022-08-26T23:42:47.953Z,2.3344481605351173
2022-08-26T23:49:27.734Z,1.5250836120401339
2022-08-26T23:55:48.812Z,1.5183946488294315
